Stewartville, Minnesota
Current Conditions -  °F | °C
As of 1:54 PM on Monday 26 Jan 2015 (Local Time) from KRST Reporting Station
Few Clouds Few Clouds  
Wind Chill: 28°   Ceiling: Unl
Heat Index: 37°   Visibility: 10mi
Dew Point: 32°   Wind: 15mph
Humidity: 82%   Direction: 310°NW
Pressure: 29.72"   Gusts: NA
Location:  43.86°N, 92.49°W
Report Text: KRST 261954Z 31013KT 10SM FEW031 03/00 A2972 RMK AO2 SLP079 T00280000
Loading
Personal Weather Stations






























Interactive Weather Map New forecast layout! Learn more

10-Day Weather Forecast

Advertisements
Track Severe Weather on mobile